createdAt,value
2023-04-10T00:01:10.728Z,8.27
2023-04-10T00:03:38.013Z,6.78
2023-04-10T00:06:05.791Z,6.13
2023-04-10T00:08:32.593Z,6.07
2023-04-10T00:10:59.500Z,7.13
2023-04-10T00:13:26.945Z,6.38
2023-04-10T00:15:53.678Z,6.38
2023-04-10T00:18:20.466Z,6.22
2023-04-10T00:20:47.269Z,6.63
2023-04-10T00:23:14.108Z,6.35
2023-04-10T00:25:40.890Z,6.13
2023-04-10T00:28:07.692Z,6.25
2023-04-10T00:30:34.537Z,5.47
2023-04-10T00:33:01.423Z,6.30
2023-04-10T00:35:28.505Z,5.90
2023-04-10T00:37:56.890Z,5.80
2023-04-10T00:40:23.870Z,5.93
2023-04-10T00:42:50.977Z,7.43
2023-04-10T00:45:17.805Z,5.72
2023-04-10T00:47:44.764Z,4.40
2023-04-10T00:50:11.635Z,5.90
2023-04-10T00:52:38.621Z,7.03
2023-04-10T00:55:06.502Z,5.68
2023-04-10T00:57:33.981Z,7.25
2023-04-10T01:00:01.321Z,6.60
2023-04-10T01:02:28.386Z,6.05
2023-04-10T01:04:55.655Z,5.15
2023-04-10T01:07:34.521Z,6.90
2023-04-10T01:10:20.768Z,9.38
2023-04-10T01:13:24.638Z,8.13
2023-04-10T01:16:10.722Z,8.07
2023-04-10T01:18:48.867Z,6.72
2023-04-10T01:21:16.283Z,6.80
2023-04-10T01:24:16.511Z,8.38
2023-04-10T01:27:11.199Z,5.68
2023-04-10T01:29:46.076Z,6.25
2023-04-10T01:32:17.282Z,6.47
2023-04-10T01:34:47.798Z,7.25
2023-04-10T01:37:20.494Z,7.55
2023-04-10T01:39:54.441Z,7.53
2023-04-10T01:42:23.093Z,6.53
2023-04-10T01:44:52.490Z,8.10
2023-04-10T01:47:19.845Z,5.53
2023-04-10T01:49:47.858Z,6.72
2023-04-10T01:52:15.902Z,5.78
2023-04-10T01:54:45.609Z,6.55
2023-04-10T01:57:15.060Z,6.68
2023-04-10T01:59:42.597Z,7.05
2023-04-10T02:02:11.842Z,6.03
2023-04-10T02:04:39.381Z,8.07
2023-04-10T02:07:22.272Z,7.40
2023-04-10T02:10:15.014Z,7.22
2023-04-10T02:12:45.062Z,6.63
2023-04-10T02:15:12.750Z,6.63
2023-04-10T02:17:40.555Z,6.95
2023-04-10T02:20:09.127Z,6.40
2023-04-10T02:22:37.153Z,7.60
2023-04-10T02:25:06.090Z,7.82
2023-04-10T02:27:36.283Z,6.40
2023-04-10T02:30:04.436Z,7.68
2023-04-10T02:32:33.301Z,8.40
2023-04-10T02:35:01.815Z,7.00
2023-04-10T02:37:28.862Z,6.60
2023-04-10T02:39:55.732Z,7.22
2023-04-10T02:42:22.630Z,9.45
2023-04-10T02:44:49.408Z,9.18
2023-04-10T02:47:16.694Z,8.20
2023-04-10T02:49:44.185Z,9.48
2023-04-10T02:52:10.931Z,9.52
2023-04-10T02:54:37.685Z,7.28
2023-04-10T02:57:05.701Z,8.85
2023-04-10T02:59:33.171Z,9.18
2023-04-10T03:02:00.034Z,8.05
2023-04-10T03:04:27.343Z,7.28
2023-04-10T03:06:54.587Z,8.40
2023-04-10T03:09:21.669Z,9.23
2023-04-10T03:11:48.363Z,8.10
2023-04-10T03:14:15.692Z,7.28
2023-04-10T03:16:42.587Z,9.13
2023-04-10T03:19:09.434Z,8.48
2023-04-10T03:21:36.611Z,7.90
2023-04-10T03:24:03.448Z,7.82
2023-04-10T03:26:30.640Z,8.27
2023-04-10T03:28:57.707Z,9.45
2023-04-10T03:31:24.462Z,7.45
2023-04-10T03:33:51.318Z,8.50
2023-04-10T03:36:18.215Z,7.38
2023-04-10T03:38:45.245Z,8.68
2023-04-10T03:41:12.033Z,8.02
2023-04-10T03:43:39.702Z,8.27
2023-04-10T03:46:06.588Z,10.43
2023-04-10T03:48:33.544Z,8.25
2023-04-10T03:51:00.428Z,9.18
2023-04-10T03:53:27.222Z,8.63
2023-04-10T03:55:54.044Z,9.23
2023-04-10T03:58:20.781Z,10.25
2023-04-10T04:00:47.764Z,9.10
2023-04-10T04:03:14.752Z,8.20
2023-04-10T04:05:41.719Z,10.55
2023-04-10T04:08:08.618Z,9.68
2023-04-10T04:10:35.404Z,11.43
2023-04-10T04:13:02.284Z,9.50
2023-04-10T04:15:29.108Z,8.65
2023-04-10T04:17:56.969Z,8.88
2023-04-10T04:20:23.907Z,8.77
2023-04-10T04:22:50.839Z,10.10
2023-04-10T04:25:19.592Z,10.32
2023-04-10T04:27:46.317Z,9.27
2023-04-10T04:30:13.147Z,10.07
2023-04-10T04:32:40.078Z,9.05
2023-04-10T04:35:07.459Z,10.13
2023-04-10T04:37:34.315Z,9.50
2023-04-10T04:40:02.043Z,9.70
2023-04-10T04:42:28.905Z,9.48
2023-04-10T04:44:55.689Z,7.97
2023-04-10T04:47:24.359Z,9.05
2023-04-10T04:49:51.126Z,9.65
2023-04-10T04:52:17.949Z,9.85
2023-04-10T04:54:44.721Z,10.27
2023-04-10T04:57:11.424Z,8.45
2023-04-10T04:59:38.362Z,9.55
2023-04-10T05:02:05.599Z,10.32
2023-04-10T05:04:32.452Z,9.27
2023-04-10T05:06:59.218Z,10.07
2023-04-10T05:09:25.950Z,10.45
2023-04-10T05:11:54.403Z,12.27
2023-04-10T05:14:22.368Z,9.73
2023-04-10T05:16:49.176Z,8.55
2023-04-10T05:19:16.310Z,9.52
2023-04-10T05:21:43.454Z,8.82
2023-04-10T05:24:10.529Z,7.93
2023-04-10T05:26:37.493Z,9.32
2023-04-10T05:29:04.675Z,7.68
2023-04-10T05:31:31.761Z,9.32
2023-04-10T05:33:58.583Z,7.90
2023-04-10T05:36:28.106Z,8.73
2023-04-10T05:38:55.205Z,7.65
2023-04-10T05:41:22.141Z,7.97
2023-04-10T05:43:49.917Z,7.47
2023-04-10T05:46:16.806Z,7.88
2023-04-10T05:48:43.730Z,7.35
2023-04-10T05:51:10.567Z,6.45
2023-04-10T05:53:37.418Z,7.45
2023-04-10T05:56:04.366Z,6.25
2023-04-10T05:58:31.521Z,7.95
2023-04-10T06:00:58.509Z,6.07
2023-04-10T06:03:27.724Z,5.88
2023-04-10T06:05:54.736Z,4.80
2023-04-10T06:08:22.971Z,6.30
2023-04-10T06:10:49.834Z,6.03
2023-04-10T06:13:17.110Z,6.47
2023-04-10T06:15:44.462Z,6.13
2023-04-10T06:18:11.450Z,5.22
2023-04-10T06:20:38.570Z,7.40
2023-04-10T06:23:05.949Z,5.68
2023-04-10T06:25:32.887Z,8.27
2023-04-10T06:28:00.428Z,7.28
2023-04-10T06:30:27.518Z,7.40
2023-04-10T06:32:54.680Z,5.00
2023-04-10T06:35:21.913Z,5.05
2023-04-10T06:37:48.975Z,7.60
2023-04-10T06:40:16.241Z,6.57
2023-04-10T06:42:43.064Z,6.35
2023-04-10T06:45:10.313Z,4.97
2023-04-10T06:47:37.136Z,4.78
2023-04-10T06:50:04.171Z,6.60
2023-04-10T06:52:33.359Z,5.53
2023-04-10T06:55:00.406Z,5.55
2023-04-10T06:57:29.599Z,4.65
2023-04-10T07:00:01.072Z,4.80
2023-04-10T07:02:28.172Z,5.55
2023-04-10T07:04:57.033Z,4.10
2023-04-10T07:07:30.551Z,4.43
2023-04-10T07:09:58.074Z,4.72
2023-04-10T07:12:25.101Z,4.40
2023-04-10T07:14:51.903Z,5.03
2023-04-10T07:17:26.330Z,4.72
2023-04-10T07:19:53.139Z,6.80
2023-04-10T07:22:19.976Z,8.60
2023-04-10T07:24:46.921Z,5.43
2023-04-10T07:27:14.702Z,5.85
2023-04-10T07:29:41.619Z,5.38
2023-04-10T07:32:08.618Z,4.65
2023-04-10T07:34:35.777Z,4.55
2023-04-10T07:37:02.603Z,7.47
2023-04-10T07:39:29.432Z,5.20
2023-04-10T07:41:56.500Z,6.22
2023-04-10T07:44:23.482Z,7.65
2023-04-10T07:46:52.308Z,7.85
2023-04-10T07:49:19.433Z,8.20
2023-04-10T07:51:46.327Z,9.52
2023-04-10T07:54:13.168Z,7.65
2023-04-10T07:56:41.379Z,5.85
2023-04-10T07:59:08.445Z,5.72
2023-04-10T08:01:35.286Z,4.40
2023-04-10T08:04:07.723Z,4.88
2023-04-10T08:06:34.669Z,4.68
2023-04-10T08:09:02.308Z,4.68
2023-04-10T08:11:35.365Z,5.68
2023-04-10T08:14:05.905Z,4.57
2023-04-10T08:16:37.535Z,5.00
2023-04-10T08:19:04.704Z,4.13
2023-04-10T08:21:32.465Z,4.22
2023-04-10T08:24:03.963Z,5.30
2023-04-10T08:26:31.435Z,7.13
2023-04-10T08:28:59.858Z,4.00
2023-04-10T08:31:34.136Z,4.30
2023-04-10T08:34:03.192Z,6.07
2023-04-10T08:36:31.758Z,5.20
2023-04-10T08:38:58.577Z,6.47
2023-04-10T08:41:25.585Z,6.00
2023-04-10T08:43:52.576Z,5.22
2023-04-10T08:46:20.220Z,8.32
2023-04-10T08:49:03.031Z,9.77
2023-04-10T08:51:51.905Z,4.82
2023-04-10T08:54:26.860Z,7.82
2023-04-10T08:56:55.236Z,7.00
2023-04-10T08:59:22.485Z,5.55
2023-04-10T09:01:49.680Z,4.80
2023-04-10T09:04:27.972Z,6.15
2023-04-10T09:06:55.100Z,5.47
2023-04-10T09:09:27.310Z,7.72
2023-04-10T09:11:55.800Z,6.50
2023-04-10T09:14:28.041Z,7.18
2023-04-10T09:17:10.849Z,11.05
2023-04-10T09:19:37.788Z,5.07
2023-04-10T09:22:05.206Z,10.80
2023-04-10T09:24:38.314Z,5.68
2023-04-10T09:27:06.627Z,7.60
2023-04-10T09:29:50.076Z,7.75
2023-04-10T09:32:36.852Z,5.88
2023-04-10T09:35:05.092Z,6.65
2023-04-10T09:37:32.978Z,8.38
2023-04-10T09:40:00.049Z,9.43
2023-04-10T09:42:37.617Z,6.07
2023-04-10T09:45:05.555Z,5.35
2023-04-10T09:47:33.232Z,5.88
2023-04-10T09:50:01.095Z,7.97
2023-04-10T09:52:34.293Z,6.30
2023-04-10T09:55:07.819Z,5.38
2023-04-10T09:57:36.098Z,6.35
2023-04-10T10:00:06.931Z,6.20
2023-04-10T10:02:39.003Z,9.07
2023-04-10T10:07:49.587Z,6.70
2023-04-10T10:10:16.706Z,6.20
2023-04-10T10:12:43.516Z,6.95
2023-04-10T10:15:10.253Z,8.45
2023-04-10T10:17:59.781Z,5.60
2023-04-10T10:20:28.211Z,7.05
2023-04-10T10:22:56.184Z,5.60
2023-04-10T10:25:24.433Z,9.60
2023-04-10T10:27:54.651Z,6.15
2023-04-10T10:30:30.071Z,6.05
2023-04-10T10:33:00.251Z,7.50
2023-04-10T10:35:29.959Z,8.20
2023-04-10T10:38:00.873Z,7.65
2023-04-10T10:40:32.456Z,7.50
2023-04-10T10:43:23.495Z,8.30
2023-04-10T10:46:13.158Z,7.28
2023-04-10T10:48:40.541Z,7.63
2023-04-10T10:51:07.527Z,7.40
2023-04-10T10:53:39.101Z,9.95
2023-04-10T10:56:23.963Z,6.72
2023-04-10T10:58:57.554Z,7.53
2023-04-10T11:01:27.289Z,8.60
2023-04-10T11:03:54.509Z,6.95
2023-04-10T11:06:43.635Z,9.13
2023-04-10T11:09:48.558Z,7.78
2023-04-10T11:12:16.882Z,8.45
2023-04-10T11:14:45.434Z,7.28
2023-04-10T11:17:12.655Z,6.32
2023-04-10T11:23:12.205Z,9.02
2023-04-10T11:25:55.788Z,6.90
2023-04-10T11:28:35.645Z,6.78
2023-04-10T11:31:22.688Z,8.93
2023-04-10T11:34:01.301Z,7.35
2023-04-10T11:36:28.827Z,11.02
2023-04-10T11:38:59.930Z,9.88
2023-04-10T11:41:34.767Z,9.63
2023-04-10T11:44:03.703Z,6.95
2023-04-10T11:46:31.742Z,8.73
2023-04-10T11:49:03.900Z,6.90
2023-04-10T11:51:31.614Z,7.57
2023-04-10T11:54:16.543Z,6.78
2023-04-10T11:56:45.773Z,8.70
2023-04-10T11:59:16.556Z,8.38
2023-04-10T12:01:43.707Z,7.32
2023-04-10T12:04:18.161Z,8.20
2023-04-10T12:06:57.404Z,8.25
2023-04-10T12:09:24.480Z,7.60
2023-04-10T12:11:54.701Z,6.05
2023-04-10T12:14:22.368Z,9.32
2023-04-10T12:16:50.544Z,7.10
2023-04-10T12:19:18.304Z,6.40
2023-04-10T12:21:46.208Z,8.65
2023-04-10T12:24:13.507Z,7.88
2023-04-10T12:26:48.992Z,7.25
2023-04-10T12:29:16.048Z,6.88
2023-04-10T12:31:43.070Z,7.78
2023-04-10T12:34:15.177Z,6.15
2023-04-10T12:36:42.032Z,8.60
2023-04-10T12:39:23.522Z,7.22
2023-04-10T12:41:50.525Z,6.68
2023-04-10T12:44:18.724Z,6.72
2023-04-10T12:46:46.148Z,6.38
2023-04-10T12:49:14.341Z,5.90
2023-04-10T12:51:51.105Z,10.07
2023-04-10T12:54:33.797Z,6.95
2023-04-10T12:57:04.101Z,6.72
2023-04-10T12:59:31.752Z,5.13
2023-04-10T13:01:58.899Z,6.13
2023-04-10T13:04:26.141Z,5.97
2023-04-10T13:09:33.867Z,5.63
2023-04-10T13:12:01.675Z,5.50
2023-04-10T13:14:28.562Z,6.13
2023-04-10T13:16:55.382Z,5.43
2023-04-10T13:19:22.334Z,4.93
2023-04-10T13:21:50.785Z,5.75
2023-04-10T13:24:17.792Z,7.07
2023-04-10T13:26:44.779Z,6.65
2023-04-10T13:29:11.978Z,6.28
2023-04-10T13:31:39.016Z,4.93
2023-04-10T13:34:05.932Z,5.65
2023-04-10T13:36:32.837Z,6.10
2023-04-10T13:38:59.961Z,6.45
2023-04-10T13:41:27.925Z,5.47
2023-04-10T13:43:55.477Z,9.85
2023-04-10T13:46:22.549Z,5.68
2023-04-10T13:48:49.334Z,5.88
2023-04-10T13:51:16.218Z,6.45
2023-04-10T13:53:43.137Z,4.43
2023-04-10T13:56:10.113Z,5.03
2023-04-10T13:58:36.940Z,4.60
2023-04-10T14:01:04.160Z,6.05
2023-04-10T14:03:32.573Z,5.47
2023-04-10T14:05:59.467Z,5.43
2023-04-10T14:08:26.301Z,5.10
2023-04-10T14:10:53.207Z,6.40
2023-04-10T14:13:20.952Z,4.93
2023-04-10T14:15:48.078Z,4.75
2023-04-10T14:18:17.613Z,6.18
2023-04-10T14:20:44.657Z,5.90
2023-04-10T14:23:18.429Z,5.32
2023-04-10T14:25:46.161Z,4.80
2023-04-10T14:28:18.040Z,4.20
2023-04-10T14:30:46.043Z,5.45
2023-04-10T14:33:12.957Z,4.65
2023-04-10T14:35:40.455Z,4.82
2023-04-10T14:38:07.730Z,4.82
2023-04-10T14:40:34.711Z,4.63
2023-04-10T14:43:01.533Z,5.10
2023-04-10T14:45:28.728Z,5.10
2023-04-10T14:47:57.671Z,7.72
2023-04-10T14:50:27.476Z,4.93
2023-04-10T14:52:54.200Z,4.32
2023-04-10T14:55:21.049Z,4.68
2023-04-10T14:57:47.904Z,4.28
2023-04-10T15:00:15.079Z,5.00
2023-04-10T15:02:42.298Z,4.15
2023-04-10T15:05:10.166Z,6.43
2023-04-10T15:07:37.033Z,3.90
2023-04-10T15:10:04.063Z,4.57
2023-04-10T15:12:30.910Z,4.30
2023-04-10T15:14:57.915Z,4.65
2023-04-10T15:17:24.845Z,4.38
2023-04-10T15:19:51.654Z,3.75
2023-04-10T15:22:18.433Z,6.38
2023-04-10T15:24:50.540Z,4.95
2023-04-10T15:27:21.278Z,6.20
2023-04-10T15:29:48.318Z,4.85
2023-04-10T15:32:15.564Z,4.70
2023-04-10T15:34:42.437Z,6.45
2023-04-10T15:37:09.293Z,4.15
2023-04-10T15:39:38.640Z,4.85
2023-04-10T15:42:07.528Z,3.92
2023-04-10T15:44:34.894Z,4.20
2023-04-10T15:47:01.902Z,4.80
2023-04-10T15:49:36.921Z,4.10
2023-04-10T15:52:08.400Z,5.13
2023-04-10T15:54:35.417Z,4.03
2023-04-10T15:57:03.356Z,5.90
2023-04-10T15:59:30.386Z,10.13
2023-04-10T16:01:57.278Z,4.85
2023-04-10T16:04:24.517Z,5.07
2023-04-10T16:06:51.759Z,5.15
2023-04-10T16:09:27.096Z,5.90
2023-04-10T16:11:55.059Z,3.90
2023-04-10T16:14:22.744Z,4.35
2023-04-10T16:16:49.936Z,6.80
2023-04-10T16:19:16.810Z,6.28
2023-04-10T16:21:43.681Z,6.43
2023-04-10T16:24:10.555Z,4.10
2023-04-10T16:26:38.334Z,6.93
2023-04-10T16:29:06.394Z,4.88
2023-04-10T16:31:33.387Z,4.18
2023-04-10T16:34:01.279Z,5.13
2023-04-10T16:36:28.334Z,4.18
2023-04-10T16:38:55.810Z,6.53
2023-04-10T16:41:23.047Z,4.88
2023-04-10T16:43:51.631Z,5.15
2023-04-10T16:46:20.646Z,4.47
2023-04-10T16:48:47.458Z,6.97
2023-04-10T16:51:17.644Z,4.78
2023-04-10T16:53:44.790Z,5.53
2023-04-10T16:56:11.910Z,5.95
2023-04-10T16:58:41.152Z,5.32
2023-04-10T17:01:26.221Z,6.53
2023-04-10T17:03:54.581Z,6.35
2023-04-10T17:06:21.472Z,5.07
2023-04-10T17:08:48.414Z,7.43
2023-04-10T17:11:16.041Z,4.57
2023-04-10T17:13:45.897Z,5.10
2023-04-10T17:16:12.784Z,5.97
2023-04-10T17:18:40.889Z,9.90
2023-04-10T17:21:12.483Z,4.50
2023-04-10T17:23:40.316Z,5.63
2023-04-10T17:26:12.127Z,6.80
2023-04-10T17:28:39.035Z,5.20
2023-04-10T17:31:06.663Z,9.20
2023-04-10T17:33:34.436Z,4.63
2023-04-10T17:36:01.244Z,4.65
2023-04-10T17:38:28.340Z,9.18
2023-04-10T17:40:55.077Z,5.50
2023-04-10T17:43:22.086Z,6.15
2023-04-10T17:45:48.969Z,9.73
2023-04-10T17:48:16.084Z,17.30
2023-04-10T17:50:43.430Z,22.25
2023-04-10T17:53:10.365Z,34.17
2023-04-10T17:55:40.181Z,21.63
2023-04-10T17:58:07.442Z,7.68
2023-04-10T18:00:34.782Z,6.97
2023-04-10T18:03:01.882Z,7.38
2023-04-10T18:05:34.781Z,9.40
2023-04-10T18:08:04.919Z,8.38
2023-04-10T18:10:32.497Z,8.65
2023-04-10T18:13:02.547Z,19.40
2023-04-10T18:15:31.010Z,13.48
2023-04-10T18:17:58.134Z,14.15
2023-04-10T18:20:26.103Z,8.82
2023-04-10T18:22:53.740Z,10.57
2023-04-10T18:25:20.653Z,11.52
2023-04-10T18:28:12.595Z,8.02
2023-04-10T18:30:42.585Z,8.98
2023-04-10T18:33:11.500Z,8.68
2023-04-10T18:35:41.816Z,11.73
2023-04-10T18:38:09.093Z,14.70
2023-04-10T18:48:48.067Z,13.90
2023-04-10T18:51:15.041Z,11.80
2023-04-10T18:53:42.801Z,10.63
2023-04-10T18:56:09.594Z,11.30
2023-04-10T18:58:37.257Z,11.95
2023-04-10T19:01:08.698Z,11.60
2023-04-10T19:03:36.289Z,12.07
2023-04-10T19:06:03.972Z,11.25
2023-04-10T19:08:31.727Z,8.93
2023-04-10T19:11:12.721Z,10.52
2023-04-10T19:13:39.650Z,11.73
2023-04-10T19:16:12.298Z,17.95
2023-04-10T19:18:40.825Z,13.07
2023-04-10T19:21:10.073Z,15.07
2023-04-10T19:23:42.158Z,12.23
2023-04-10T19:26:12.633Z,15.15
2023-04-10T19:28:40.578Z,14.00
2023-04-10T19:36:32.641Z,12.18
2023-04-10T19:39:03.059Z,11.68
2023-04-10T19:41:29.951Z,13.50
2023-04-10T19:43:57.118Z,12.13
2023-04-10T19:49:05.501Z,15.52
2023-04-10T19:51:35.629Z,12.35
2023-04-10T19:54:02.789Z,15.07
2023-04-10T19:56:29.802Z,16.33
2023-04-10T20:01:42.726Z,19.13
2023-04-10T20:04:14.170Z,12.88
2023-04-10T20:06:43.090Z,11.43
2023-04-10T20:09:10.788Z,10.07
2023-04-10T20:11:38.352Z,10.45
2023-04-10T20:14:05.392Z,9.05
2023-04-10T20:16:32.744Z,12.85
2023-04-10T20:19:00.802Z,9.52
2023-04-10T20:21:34.105Z,13.02
2023-04-10T20:24:00.972Z,9.50
2023-04-10T20:26:27.890Z,9.95
2023-04-10T20:28:55.305Z,10.40
2023-04-10T20:31:22.324Z,8.93
2023-04-10T20:33:57.904Z,10.30
2023-04-10T20:39:07.226Z,10.02
2023-04-10T20:41:35.399Z,8.98
2023-04-10T20:44:16.193Z,9.88
2023-04-10T20:46:43.247Z,10.82
2023-04-10T20:49:12.557Z,8.18
2023-04-10T20:51:39.593Z,10.02
2023-04-10T20:54:07.555Z,11.00
2023-04-10T20:56:42.729Z,14.20
2023-04-10T20:59:10.632Z,10.95
2023-04-10T21:01:37.735Z,8.93
2023-04-10T21:04:11.262Z,10.60
2023-04-10T21:06:38.148Z,8.60
2023-04-10T21:09:05.984Z,9.95
2023-04-10T21:11:32.887Z,10.10
2023-04-10T21:14:03.319Z,9.93
2023-04-10T21:16:31.195Z,9.02
2023-04-10T21:18:59.132Z,8.45
2023-04-10T21:24:08.363Z,9.80
2023-04-10T21:26:35.488Z,8.65
2023-04-10T21:29:03.178Z,8.82
2023-04-10T21:31:30.525Z,9.52
2023-04-10T21:33:57.720Z,10.10
2023-04-10T21:36:28.005Z,9.50
2023-04-10T21:38:54.959Z,9.02
2023-04-10T21:41:22.132Z,9.23
2023-04-10T21:43:49.119Z,7.53
2023-04-10T21:46:16.951Z,8.38
2023-04-10T21:48:44.250Z,9.50
2023-04-10T21:51:11.426Z,8.07
2023-04-10T21:53:38.430Z,8.23
2023-04-10T21:56:06.389Z,7.80
2023-04-10T21:58:33.287Z,9.38
2023-04-10T22:01:00.940Z,8.80
2023-04-10T22:03:27.990Z,7.70
2023-04-10T22:05:54.903Z,7.65
2023-04-10T22:08:22.065Z,7.53
2023-04-10T22:10:49.225Z,7.07
2023-04-10T22:15:45.809Z,7.30
2023-04-10T22:18:12.769Z,9.80
2023-04-10T22:20:39.538Z,8.25
2023-04-10T22:23:06.384Z,8.73
2023-04-10T22:25:33.914Z,7.03
2023-04-10T22:28:03.190Z,7.00
2023-04-10T22:30:30.028Z,7.95
2023-04-10T22:32:57.375Z,7.47
2023-04-10T22:35:24.538Z,6.63
2023-04-10T22:37:51.421Z,9.18
2023-04-10T22:40:18.264Z,7.03
2023-04-10T22:42:45.713Z,8.13
2023-04-10T22:45:12.997Z,11.05
2023-04-10T22:47:39.777Z,8.45
2023-04-10T22:50:07.329Z,8.07
2023-04-10T22:52:34.156Z,6.97
2023-04-10T22:55:01.084Z,6.78
2023-04-10T22:57:27.809Z,6.10
2023-04-10T22:59:54.504Z,6.32
2023-04-10T23:02:21.294Z,8.15
2023-04-10T23:04:48.257Z,9.40
2023-04-10T23:07:15.416Z,7.30
2023-04-10T23:09:42.301Z,7.45
2023-04-10T23:12:09.152Z,6.45
2023-04-10T23:14:36.158Z,8.50
2023-04-10T23:17:03.268Z,7.35
2023-04-10T23:19:30.026Z,7.97
2023-04-10T23:21:57.227Z,6.50
2023-04-10T23:24:24.050Z,8.05
2023-04-10T23:26:50.838Z,6.38
2023-04-10T23:29:17.605Z,7.47
2023-04-10T23:31:44.440Z,9.43
2023-04-10T23:34:11.222Z,6.95
2023-04-10T23:36:38.014Z,5.35
2023-04-10T23:39:04.767Z,6.68
2023-04-10T23:41:32.396Z,6.22
2023-04-10T23:43:59.153Z,6.57
2023-04-10T23:46:25.949Z,7.68
2023-04-10T23:48:54.549Z,6.43
2023-04-10T23:51:21.498Z,6.18
2023-04-10T23:53:48.356Z,6.35
2023-04-10T23:56:15.352Z,6.85
2023-04-10T23:58:42.077Z,6.05
